sensor_id;sensor_type;location;lat;lon;timestamp;P1;durP1;ratioP1;P2;durP2;ratioP2
65172;SDS011;51758;52.218;5.172;2022-11-20T00:00:53;19.33;;;11.82;;
65172;SDS011;51758;52.218;5.172;2022-11-20T00:03:21;21.80;;;11.82;;
65172;SDS011;51758;52.218;5.172;2022-11-20T00:05:50;15.77;;;10.65;;
65172;SDS011;51758;52.218;5.172;2022-11-20T00:08:17;20.73;;;12.57;;
65172;SDS011;51758;52.218;5.172;2022-11-20T00:10:45;21.47;;;12.00;;
65172;SDS011;51758;52.218;5.172;2022-11-20T00:13:14;20.50;;;12.53;;
65172;SDS011;51758;52.218;5.172;2022-11-20T00:15:42;22.03;;;11.90;;
65172;SDS011;51758;52.218;5.172;2022-11-20T00:18:09;18.70;;;11.13;;
65172;SDS011;51758;52.218;5.172;2022-11-20T00:20:37;20.90;;;11.93;;
65172;SDS011;51758;52.218;5.172;2022-11-20T00:23:05;20.33;;;12.17;;
65172;SDS011;51758;52.218;5.172;2022-11-20T00:25:33;20.08;;;12.48;;
65172;SDS011;51758;52.218;5.172;2022-11-20T00:28:01;19.60;;;12.15;;
65172;SDS011;51758;52.218;5.172;2022-11-20T00:30:30;16.33;;;10.53;;
65172;SDS011;51758;52.218;5.172;2022-11-20T00:32:58;21.13;;;12.23;;
65172;SDS011;51758;52.218;5.172;2022-11-20T00:35:26;20.97;;;12.80;;
65172;SDS011;51758;52.218;5.172;2022-11-20T00:37:53;19.53;;;11.37;;
65172;SDS011;51758;52.218;5.172;2022-11-20T00:40:21;20.60;;;12.07;;
65172;SDS011;51758;52.218;5.172;2022-11-20T00:42:49;21.17;;;12.40;;
65172;SDS011;51758;52.218;5.172;2022-11-20T00:45:16;21.30;;;12.97;;
65172;SDS011;51758;52.218;5.172;2022-11-20T00:47:45;22.80;;;12.70;;
65172;SDS011;51758;52.218;5.172;2022-11-20T00:50:13;18.93;;;13.00;;
65172;SDS011;51758;52.218;5.172;2022-11-20T00:52:41;18.37;;;11.87;;
65172;SDS011;51758;52.218;5.172;2022-11-20T00:55:08;23.00;;;13.30;;
65172;SDS011;51758;52.218;5.172;2022-11-20T00:57:36;23.50;;;13.17;;
65172;SDS011;51758;52.218;5.172;2022-11-20T01:00:04;17.33;;;12.10;;
65172;SDS011;51758;52.218;5.172;2022-11-20T01:02:33;19.30;;;12.00;;
65172;SDS011;51758;52.218;5.172;2022-11-20T01:05:02;22.60;;;12.50;;
65172;SDS011;51758;52.218;5.172;2022-11-20T01:07:29;20.03;;;12.23;;
65172;SDS011;51758;52.218;5.172;2022-11-20T01:09:59;20.03;;;11.90;;
65172;SDS011;51758;52.218;5.172;2022-11-20T01:12:26;20.97;;;11.77;;
65172;SDS011;51758;52.218;5.172;2022-11-20T01:14:54;22.30;;;12.87;;
65172;SDS011;51758;52.218;5.172;2022-11-20T01:17:22;21.17;;;12.40;;
65172;SDS011;51758;52.218;5.172;2022-11-20T01:19:49;19.87;;;11.63;;
65172;SDS011;51758;52.218;5.172;2022-11-20T01:22:18;19.43;;;11.73;;
65172;SDS011;51758;52.218;5.172;2022-11-20T01:24:46;22.87;;;11.87;;
65172;SDS011;51758;52.218;5.172;2022-11-20T01:27:14;21.10;;;12.53;;
65172;SDS011;51758;52.218;5.172;2022-11-20T01:29:41;19.67;;;12.30;;
65172;SDS011;51758;52.218;5.172;2022-11-20T01:32:09;20.67;;;11.83;;
65172;SDS011;51758;52.218;5.172;2022-11-20T01:34:37;19.00;;;10.77;;
65172;SDS011;51758;52.218;5.172;2022-11-20T01:37:04;20.53;;;12.90;;
65172;SDS011;51758;52.218;5.172;2022-11-20T01:39:34;19.00;;;12.20;;
65172;SDS011;51758;52.218;5.172;2022-11-20T01:42:02;19.33;;;11.23;;
65172;SDS011;51758;52.218;5.172;2022-11-20T01:44:48;19.10;;;11.80;;
65172;SDS011;51758;52.218;5.172;2022-11-20T01:47:20;20.50;;;12.53;;
65172;SDS011;51758;52.218;5.172;2022-11-20T01:49:53;19.03;;;11.67;;
65172;SDS011;51758;52.218;5.172;2022-11-20T01:52:24;20.80;;;12.40;;
65172;SDS011;51758;52.218;5.172;2022-11-20T01:54:57;18.17;;;11.87;;
65172;SDS011;51758;52.218;5.172;2022-11-20T01:57:29;21.20;;;12.00;;
65172;SDS011;51758;52.218;5.172;2022-11-20T01:59:59;18.73;;;11.63;;
65172;SDS011;51758;52.218;5.172;2022-11-20T02:02:30;19.10;;;12.03;;
65172;SDS011;51758;52.218;5.172;2022-11-20T02:05:01;19.02;;;12.00;;
65172;SDS011;51758;52.218;5.172;2022-11-20T02:07:36;21.30;;;11.90;;
65172;SDS011;51758;52.218;5.172;2022-11-20T02:10:06;17.35;;;11.68;;
65172;SDS011;51758;52.218;5.172;2022-11-20T02:12:34;19.57;;;12.07;;
65172;SDS011;51758;52.218;5.172;2022-11-20T02:15:19;18.70;;;11.50;;
65172;SDS011;51758;52.218;5.172;2022-11-20T02:17:54;20.63;;;11.57;;
65172;SDS011;51758;52.218;5.172;2022-11-20T02:20:21;21.63;;;12.43;;
65172;SDS011;51758;52.218;5.172;2022-11-20T02:22:50;19.63;;;11.23;;
65172;SDS011;51758;52.218;5.172;2022-11-20T02:25:25;19.90;;;11.70;;
65172;SDS011;51758;52.218;5.172;2022-11-20T02:27:55;18.83;;;11.63;;
65172;SDS011;51758;52.218;5.172;2022-11-20T02:30:23;19.85;;;11.65;;
65172;SDS011;51758;52.218;5.172;2022-11-20T02:32:51;18.80;;;11.97;;
65172;SDS011;51758;52.218;5.172;2022-11-20T02:35:42;21.52;;;12.13;;
65172;SDS011;51758;52.218;5.172;2022-11-20T02:38:12;19.07;;;11.83;;
65172;SDS011;51758;52.218;5.172;2022-11-20T02:40:42;17.97;;;11.30;;
65172;SDS011;51758;52.218;5.172;2022-11-20T02:43:10;16.77;;;11.07;;
65172;SDS011;51758;52.218;5.172;2022-11-20T02:45:38;16.75;;;11.52;;
65172;SDS011;51758;52.218;5.172;2022-11-20T02:48:06;18.50;;;11.80;;
65172;SDS011;51758;52.218;5.172;2022-11-20T02:50:36;17.77;;;11.02;;
65172;SDS011;51758;52.218;5.172;2022-11-20T02:53:04;20.97;;;11.77;;
65172;SDS011;51758;52.218;5.172;2022-11-20T02:55:32;19.07;;;11.30;;
65172;SDS011;51758;52.218;5.172;2022-11-20T02:58:01;17.90;;;11.68;;
65172;SDS011;51758;52.218;5.172;2022-11-20T03:00:29;20.63;;;11.40;;
65172;SDS011;51758;52.218;5.172;2022-11-20T03:02:58;24.33;;;13.15;;
65172;SDS011;51758;52.218;5.172;2022-11-20T03:05:25;19.77;;;12.53;;
65172;SDS011;51758;52.218;5.172;2022-11-20T03:07:53;20.90;;;12.60;;
65172;SDS011;51758;52.218;5.172;2022-11-20T03:10:20;20.13;;;12.77;;
65172;SDS011;51758;52.218;5.172;2022-11-20T03:12:52;21.43;;;12.43;;
65172;SDS011;51758;52.218;5.172;2022-11-20T03:15:21;19.70;;;11.97;;
65172;SDS011;51758;52.218;5.172;2022-11-20T03:17:52;18.80;;;11.70;;
65172;SDS011;51758;52.218;5.172;2022-11-20T03:20:20;20.87;;;12.83;;
65172;SDS011;51758;52.218;5.172;2022-11-20T03:22:48;18.70;;;12.02;;
65172;SDS011;51758;52.218;5.172;2022-11-20T03:25:16;18.70;;;11.57;;
65172;SDS011;51758;52.218;5.172;2022-11-20T03:27:43;19.53;;;11.63;;
65172;SDS011;51758;52.218;5.172;2022-11-20T03:30:11;21.70;;;11.97;;
65172;SDS011;51758;52.218;5.172;2022-11-20T03:37:36;19.63;;;11.50;;
65172;SDS011;51758;52.218;5.172;2022-11-20T03:40:04;18.93;;;11.67;;
65172;SDS011;51758;52.218;5.172;2022-11-20T03:42:33;22.70;;;12.87;;
65172;SDS011;51758;52.218;5.172;2022-11-20T03:45:13;19.90;;;12.30;;
65172;SDS011;51758;52.218;5.172;2022-11-20T03:50:11;19.03;;;11.57;;
65172;SDS011;51758;52.218;5.172;2022-11-20T03:55:08;16.25;;;11.20;;
65172;SDS011;51758;52.218;5.172;2022-11-20T03:57:36;19.73;;;11.80;;
65172;SDS011;51758;52.218;5.172;2022-11-20T04:00:04;21.37;;;12.47;;
65172;SDS011;51758;52.218;5.172;2022-11-20T04:02:32;18.77;;;12.10;;
65172;SDS011;51758;52.218;5.172;2022-11-20T04:05:01;21.47;;;12.87;;
65172;SDS011;51758;52.218;5.172;2022-11-20T04:07:29;22.10;;;13.40;;
65172;SDS011;51758;52.218;5.172;2022-11-20T04:09:57;21.63;;;12.57;;
65172;SDS011;51758;52.218;5.172;2022-11-20T04:12:25;20.93;;;12.10;;
65172;SDS011;51758;52.218;5.172;2022-11-20T04:14:53;23.60;;;14.17;;
65172;SDS011;51758;52.218;5.172;2022-11-20T04:17:20;22.73;;;14.13;;
65172;SDS011;51758;52.218;5.172;2022-11-20T04:19:48;22.63;;;13.97;;
65172;SDS011;51758;52.218;5.172;2022-11-20T04:22:17;22.03;;;13.67;;
65172;SDS011;51758;52.218;5.172;2022-11-20T04:24:44;23.13;;;13.37;;
65172;SDS011;51758;52.218;5.172;2022-11-20T04:27:12;21.80;;;14.00;;
65172;SDS011;51758;52.218;5.172;2022-11-20T04:29:40;23.07;;;14.03;;
65172;SDS011;51758;52.218;5.172;2022-11-20T04:32:07;23.70;;;14.80;;
65172;SDS011;51758;52.218;5.172;2022-11-20T04:34:35;20.73;;;13.50;;
65172;SDS011;51758;52.218;5.172;2022-11-20T04:37:03;22.20;;;13.67;;
65172;SDS011;51758;52.218;5.172;2022-11-20T04:39:32;22.90;;;13.20;;
65172;SDS011;51758;52.218;5.172;2022-11-20T04:42:00;21.73;;;12.83;;
65172;SDS011;51758;52.218;5.172;2022-11-20T04:44:45;19.73;;;12.47;;
65172;SDS011;51758;52.218;5.172;2022-11-20T04:47:13;20.37;;;12.63;;
65172;SDS011;51758;52.218;5.172;2022-11-20T04:49:41;20.47;;;12.90;;
65172;SDS011;51758;52.218;5.172;2022-11-20T04:52:08;19.57;;;11.93;;
65172;SDS011;51758;52.218;5.172;2022-11-20T04:54:37;21.20;;;12.50;;
65172;SDS011;51758;52.218;5.172;2022-11-20T04:57:05;20.93;;;11.90;;
65172;SDS011;51758;52.218;5.172;2022-11-20T04:59:39;21.77;;;13.47;;
65172;SDS011;51758;52.218;5.172;2022-11-20T05:02:07;20.30;;;12.23;;
65172;SDS011;51758;52.218;5.172;2022-11-20T05:04:35;21.20;;;12.27;;
65172;SDS011;51758;52.218;5.172;2022-11-20T05:07:03;22.97;;;14.10;;
65172;SDS011;51758;52.218;5.172;2022-11-20T05:09:31;22.33;;;12.55;;
65172;SDS011;51758;52.218;5.172;2022-11-20T05:12:00;20.57;;;13.27;;
65172;SDS011;51758;52.218;5.172;2022-11-20T05:14:27;21.67;;;13.00;;
65172;SDS011;51758;52.218;5.172;2022-11-20T05:16:55;20.20;;;12.70;;
65172;SDS011;51758;52.218;5.172;2022-11-20T05:19:23;19.83;;;12.27;;
65172;SDS011;51758;52.218;5.172;2022-11-20T05:21:50;21.27;;;13.27;;
65172;SDS011;51758;52.218;5.172;2022-11-20T05:24:18;23.20;;;13.47;;
65172;SDS011;51758;52.218;5.172;2022-11-20T05:26:46;21.10;;;13.23;;
65172;SDS011;51758;52.218;5.172;2022-11-20T05:29:15;21.50;;;12.70;;
65172;SDS011;51758;52.218;5.172;2022-11-20T05:31:42;21.97;;;12.43;;
65172;SDS011;51758;52.218;5.172;2022-11-20T05:34:10;21.23;;;12.97;;
65172;SDS011;51758;52.218;5.172;2022-11-20T05:36:38;20.80;;;13.27;;
65172;SDS011;51758;52.218;5.172;2022-11-20T05:39:06;20.27;;;12.73;;
65172;SDS011;51758;52.218;5.172;2022-11-20T05:41:33;23.00;;;13.67;;
65172;SDS011;51758;52.218;5.172;2022-11-20T05:44:01;22.60;;;12.93;;
65172;SDS011;51758;52.218;5.172;2022-11-20T05:46:30;20.42;;;12.13;;
65172;SDS011;51758;52.218;5.172;2022-11-20T05:48:58;23.00;;;12.77;;
65172;SDS011;51758;52.218;5.172;2022-11-20T05:51:26;22.10;;;12.23;;
65172;SDS011;51758;52.218;5.172;2022-11-20T05:53:55;20.38;;;12.77;;
65172;SDS011;51758;52.218;5.172;2022-11-20T05:56:23;19.97;;;12.23;;
65172;SDS011;51758;52.218;5.172;2022-11-20T05:58:51;21.37;;;12.80;;
65172;SDS011;51758;52.218;5.172;2022-11-20T06:01:19;20.50;;;12.40;;
65172;SDS011;51758;52.218;5.172;2022-11-20T06:03:50;22.70;;;13.00;;
65172;SDS011;51758;52.218;5.172;2022-11-20T06:06:18;22.87;;;12.07;;
65172;SDS011;51758;52.218;5.172;2022-11-20T06:08:47;20.83;;;12.48;;
65172;SDS011;51758;52.218;5.172;2022-11-20T06:11:15;21.42;;;13.07;;
65172;SDS011;51758;52.218;5.172;2022-11-20T06:13:43;19.63;;;12.93;;
65172;SDS011;51758;52.218;5.172;2022-11-20T06:16:13;21.15;;;12.40;;
65172;SDS011;51758;52.218;5.172;2022-11-20T06:18:42;19.50;;;13.23;;
65172;SDS011;51758;52.218;5.172;2022-11-20T06:21:12;20.80;;;13.07;;
65172;SDS011;51758;52.218;5.172;2022-11-20T06:23:42;19.33;;;12.13;;
65172;SDS011;51758;52.218;5.172;2022-11-20T06:26:12;22.47;;;12.80;;
65172;SDS011;51758;52.218;5.172;2022-11-20T06:28:41;22.40;;;13.47;;
65172;SDS011;51758;52.218;5.172;2022-11-20T06:31:09;23.67;;;14.47;;
65172;SDS011;51758;52.218;5.172;2022-11-20T06:33:39;23.57;;;15.07;;
65172;SDS011;51758;52.218;5.172;2022-11-20T06:36:07;22.23;;;13.50;;
65172;SDS011;51758;52.218;5.172;2022-11-20T06:38:37;24.43;;;13.07;;
65172;SDS011;51758;52.218;5.172;2022-11-20T06:41:06;22.73;;;13.87;;
65172;SDS011;51758;52.218;5.172;2022-11-20T06:43:37;19.37;;;12.10;;
65172;SDS011;51758;52.218;5.172;2022-11-20T06:46:04;26.27;;;15.60;;
65172;SDS011;51758;52.218;5.172;2022-11-20T06:48:32;28.30;;;15.82;;
65172;SDS011;51758;52.218;5.172;2022-11-20T06:51:00;28.40;;;16.67;;
65172;SDS011;51758;52.218;5.172;2022-11-20T06:53:29;27.57;;;16.10;;
65172;SDS011;51758;52.218;5.172;2022-11-20T06:55:59;28.20;;;16.20;;
65172;SDS011;51758;52.218;5.172;2022-11-20T06:58:27;28.50;;;16.40;;
65172;SDS011;51758;52.218;5.172;2022-11-20T07:00:57;24.97;;;15.03;;
65172;SDS011;51758;52.218;5.172;2022-11-20T07:03:25;25.93;;;15.00;;
65172;SDS011;51758;52.218;5.172;2022-11-20T07:05:54;23.40;;;13.63;;
65172;SDS011;51758;52.218;5.172;2022-11-20T07:10:49;22.40;;;13.97;;
65172;SDS011;51758;52.218;5.172;2022-11-20T07:13:19;20.73;;;13.20;;
65172;SDS011;51758;52.218;5.172;2022-11-20T07:15:46;23.53;;;14.47;;
65172;SDS011;51758;52.218;5.172;2022-11-20T07:18:14;24.13;;;14.73;;
65172;SDS011;51758;52.218;5.172;2022-11-20T07:20:41;20.67;;;13.73;;
65172;SDS011;51758;52.218;5.172;2022-11-20T07:23:09;22.17;;;14.83;;
65172;SDS011;51758;52.218;5.172;2022-11-20T07:25:37;21.63;;;14.37;;
65172;SDS011;51758;52.218;5.172;2022-11-20T07:28:04;26.03;;;14.90;;
65172;SDS011;51758;52.218;5.172;2022-11-20T07:30:33;23.57;;;14.00;;
65172;SDS011;51758;52.218;5.172;2022-11-20T07:33:01;26.73;;;14.57;;
65172;SDS011;51758;52.218;5.172;2022-11-20T07:35:29;26.00;;;14.87;;
65172;SDS011;51758;52.218;5.172;2022-11-20T07:37:56;26.57;;;14.73;;
65172;SDS011;51758;52.218;5.172;2022-11-20T07:40:24;25.70;;;14.43;;
65172;SDS011;51758;52.218;5.172;2022-11-20T07:42:52;25.47;;;14.50;;
65172;SDS011;51758;52.218;5.172;2022-11-20T07:45:22;23.70;;;14.77;;
65172;SDS011;51758;52.218;5.172;2022-11-20T07:47:52;24.67;;;15.40;;
65172;SDS011;51758;52.218;5.172;2022-11-20T07:50:20;22.20;;;15.03;;
65172;SDS011;51758;52.218;5.172;2022-11-20T07:52:47;24.60;;;14.05;;
65172;SDS011;51758;52.218;5.172;2022-11-20T07:55:15;22.40;;;14.57;;
65172;SDS011;51758;52.218;5.172;2022-11-20T07:57:43;24.52;;;15.40;;
65172;SDS011;51758;52.218;5.172;2022-11-20T08:00:11;27.20;;;16.37;;
65172;SDS011;51758;52.218;5.172;2022-11-20T08:02:40;23.27;;;15.50;;
65172;SDS011;51758;52.218;5.172;2022-11-20T08:05:10;24.98;;;15.88;;
65172;SDS011;51758;52.218;5.172;2022-11-20T08:07:38;26.93;;;16.17;;
65172;SDS011;51758;52.218;5.172;2022-11-20T08:10:06;24.80;;;14.93;;
65172;SDS011;51758;52.218;5.172;2022-11-20T08:12:35;24.77;;;15.40;;
65172;SDS011;51758;52.218;5.172;2022-11-20T08:15:20;23.60;;;15.47;;
65172;SDS011;51758;52.218;5.172;2022-11-20T08:17:48;23.57;;;15.30;;
65172;SDS011;51758;52.218;5.172;2022-11-20T08:20:37;34.80;;;22.13;;
65172;SDS011;51758;52.218;5.172;2022-11-20T08:23:05;33.20;;;23.43;;
65172;SDS011;51758;52.218;5.172;2022-11-20T08:28:03;25.60;;;17.33;;
65172;SDS011;51758;52.218;5.172;2022-11-20T08:30:45;31.17;;;21.10;;
65172;SDS011;51758;52.218;5.172;2022-11-20T08:33:12;25.10;;;15.93;;
65172;SDS011;51758;52.218;5.172;2022-11-20T08:35:42;22.93;;;15.43;;
65172;SDS011;51758;52.218;5.172;2022-11-20T08:38:09;26.10;;;16.13;;
65172;SDS011;51758;52.218;5.172;2022-11-20T08:40:37;22.80;;;15.67;;
65172;SDS011;51758;52.218;5.172;2022-11-20T08:43:05;27.07;;;17.27;;
65172;SDS011;51758;52.218;5.172;2022-11-20T08:45:32;27.33;;;16.60;;
65172;SDS011;51758;52.218;5.172;2022-11-20T08:48:01;28.50;;;16.55;;
65172;SDS011;51758;52.218;5.172;2022-11-20T08:50:28;23.10;;;15.77;;
65172;SDS011;51758;52.218;5.172;2022-11-20T08:53:03;24.87;;;16.17;;
65172;SDS011;51758;52.218;5.172;2022-11-20T08:55:31;25.30;;;15.73;;
65172;SDS011;51758;52.218;5.172;2022-11-20T08:58:02;26.10;;;16.10;;
65172;SDS011;51758;52.218;5.172;2022-11-20T09:00:30;24.30;;;15.43;;
65172;SDS011;51758;52.218;5.172;2022-11-20T09:02:59;23.88;;;15.32;;
65172;SDS011;51758;52.218;5.172;2022-11-20T09:05:27;25.50;;;16.63;;
65172;SDS011;51758;52.218;5.172;2022-11-20T09:07:55;25.42;;;16.50;;
65172;SDS011;51758;52.218;5.172;2022-11-20T09:10:25;24.73;;;16.20;;
65172;SDS011;51758;52.218;5.172;2022-11-20T09:12:53;27.37;;;16.97;;
65172;SDS011;51758;52.218;5.172;2022-11-20T09:15:21;26.40;;;16.70;;
65172;SDS011;51758;52.218;5.172;2022-11-20T09:17:52;23.88;;;15.95;;
65172;SDS011;51758;52.218;5.172;2022-11-20T09:20:20;24.37;;;15.87;;
65172;SDS011;51758;52.218;5.172;2022-11-20T09:22:48;25.85;;;16.65;;
65172;SDS011;51758;52.218;5.172;2022-11-20T09:25:16;23.07;;;15.53;;
65172;SDS011;51758;52.218;5.172;2022-11-20T09:27:45;30.40;;;17.65;;
65172;SDS011;51758;52.218;5.172;2022-11-20T09:30:14;23.23;;;15.80;;
65172;SDS011;51758;52.218;5.172;2022-11-20T09:32:42;24.65;;;16.88;;
65172;SDS011;51758;52.218;5.172;2022-11-20T09:35:10;27.43;;;17.13;;
65172;SDS011;51758;52.218;5.172;2022-11-20T09:37:38;25.52;;;16.75;;
65172;SDS011;51758;52.218;5.172;2022-11-20T09:40:06;26.33;;;16.97;;
65172;SDS011;51758;52.218;5.172;2022-11-20T09:42:46;25.92;;;17.80;;
65172;SDS011;51758;52.218;5.172;2022-11-20T09:45:21;24.77;;;17.13;;
65172;SDS011;51758;52.218;5.172;2022-11-20T09:48:02;27.53;;;17.40;;
65172;SDS011;51758;52.218;5.172;2022-11-20T09:50:41;26.93;;;17.20;;
65172;SDS011;51758;52.218;5.172;2022-11-20T09:53:16;22.13;;;15.57;;
65172;SDS011;51758;52.218;5.172;2022-11-20T09:55:54;24.60;;;16.70;;
65172;SDS011;51758;52.218;5.172;2022-11-20T09:58:27;26.38;;;17.08;;
65172;SDS011;51758;52.218;5.172;2022-11-20T10:01:00;25.87;;;15.67;;
65172;SDS011;51758;52.218;5.172;2022-11-20T10:03:39;24.47;;;16.47;;
65172;SDS011;51758;52.218;5.172;2022-11-20T10:06:15;26.17;;;16.53;;
65172;SDS011;51758;52.218;5.172;2022-11-20T10:08:45;24.10;;;16.67;;
65172;SDS011;51758;52.218;5.172;2022-11-20T10:11:21;26.77;;;17.03;;
65172;SDS011;51758;52.218;5.172;2022-11-20T10:14:03;25.33;;;16.60;;
65172;SDS011;51758;52.218;5.172;2022-11-20T10:19:14;27.97;;;17.23;;
65172;SDS011;51758;52.218;5.172;2022-11-20T10:21:56;26.40;;;17.70;;
65172;SDS011;51758;52.218;5.172;2022-11-20T10:24:36;26.93;;;17.03;;
65172;SDS011;51758;52.218;5.172;2022-11-20T10:27:18;28.03;;;17.90;;
65172;SDS011;51758;52.218;5.172;2022-11-20T10:32:31;28.43;;;16.90;;
65172;SDS011;51758;52.218;5.172;2022-11-20T10:35:05;30.47;;;18.37;;
65172;SDS011;51758;52.218;5.172;2022-11-20T10:37:42;29.83;;;18.73;;
65172;SDS011;51758;52.218;5.172;2022-11-20T10:40:17;25.23;;;17.23;;
65172;SDS011;51758;52.218;5.172;2022-11-20T10:42:50;29.37;;;18.53;;
65172;SDS011;51758;52.218;5.172;2022-11-20T10:45:30;103.60;;;55.90;;
65172;SDS011;51758;52.218;5.172;2022-11-20T10:48:11;30.30;;;18.93;;
65172;SDS011;51758;52.218;5.172;2022-11-20T10:50:48;29.25;;;17.90;;
65172;SDS011;51758;52.218;5.172;2022-11-20T10:53:27;28.23;;;18.40;;
65172;SDS011;51758;52.218;5.172;2022-11-20T10:56:15;32.30;;;19.60;;
65172;SDS011;51758;52.218;5.172;2022-11-20T10:58:48;30.93;;;20.30;;
65172;SDS011;51758;52.218;5.172;2022-11-20T11:01:28;31.07;;;20.60;;
65172;SDS011;51758;52.218;5.172;2022-11-20T11:03:56;32.63;;;19.07;;
65172;SDS011;51758;52.218;5.172;2022-11-20T11:08:58;28.20;;;17.73;;
65172;SDS011;51758;52.218;5.172;2022-11-20T11:11:32;29.27;;;19.07;;
65172;SDS011;51758;52.218;5.172;2022-11-20T11:14:04;36.23;;;20.30;;
65172;SDS011;51758;52.218;5.172;2022-11-20T11:16:34;33.97;;;20.17;;
65172;SDS011;51758;52.218;5.172;2022-11-20T11:19:03;30.80;;;19.40;;
65172;SDS011;51758;52.218;5.172;2022-11-20T11:21:33;31.17;;;19.40;;
65172;SDS011;51758;52.218;5.172;2022-11-20T11:24:03;33.50;;;20.10;;
65172;SDS011;51758;52.218;5.172;2022-11-20T11:26:53;31.10;;;18.83;;
65172;SDS011;51758;52.218;5.172;2022-11-20T11:29:25;32.00;;;20.40;;
65172;SDS011;51758;52.218;5.172;2022-11-20T11:32:04;33.53;;;20.97;;
65172;SDS011;51758;52.218;5.172;2022-11-20T11:34:34;32.97;;;19.23;;
65172;SDS011;51758;52.218;5.172;2022-11-20T11:37:02;32.13;;;20.35;;
65172;SDS011;51758;52.218;5.172;2022-11-20T11:39:31;36.70;;;21.27;;
65172;SDS011;51758;52.218;5.172;2022-11-20T11:42:00;36.33;;;21.67;;
65172;SDS011;51758;52.218;5.172;2022-11-20T11:44:30;34.17;;;20.73;;
65172;SDS011;51758;52.218;5.172;2022-11-20T11:47:20;37.75;;;21.15;;
65172;SDS011;51758;52.218;5.172;2022-11-20T11:50:00;35.27;;;22.73;;
65172;SDS011;51758;52.218;5.172;2022-11-20T11:52:28;40.60;;;22.67;;
65172;SDS011;51758;52.218;5.172;2022-11-20T11:54:59;42.77;;;24.07;;
65172;SDS011;51758;52.218;5.172;2022-11-20T11:57:37;41.15;;;22.83;;
65172;SDS011;51758;52.218;5.172;2022-11-20T12:00:13;41.30;;;22.13;;
65172;SDS011;51758;52.218;5.172;2022-11-20T12:02:48;35.97;;;22.37;;
65172;SDS011;51758;52.218;5.172;2022-11-20T12:05:24;40.43;;;23.13;;
65172;SDS011;51758;52.218;5.172;2022-11-20T12:07:55;43.83;;;23.73;;
65172;SDS011;51758;52.218;5.172;2022-11-20T12:10:41;41.70;;;24.10;;
65172;SDS011;51758;52.218;5.172;2022-11-20T12:13:26;45.53;;;25.27;;
65172;SDS011;51758;52.218;5.172;2022-11-20T12:16:02;44.00;;;25.70;;
65172;SDS011;51758;52.218;5.172;2022-11-20T12:18:33;43.37;;;24.97;;
65172;SDS011;51758;52.218;5.172;2022-11-20T12:21:03;44.60;;;25.73;;
65172;SDS011;51758;52.218;5.172;2022-11-20T12:23:42;47.90;;;25.90;;
65172;SDS011;51758;52.218;5.172;2022-11-20T12:26:14;49.67;;;26.47;;
65172;SDS011;51758;52.218;5.172;2022-11-20T12:28:52;54.77;;;28.87;;
65172;SDS011;51758;52.218;5.172;2022-11-20T12:31:42;51.27;;;28.13;;
65172;SDS011;51758;52.218;5.172;2022-11-20T12:34:37;46.57;;;26.13;;
65172;SDS011;51758;52.218;5.172;2022-11-20T12:37:14;46.40;;;25.73;;
65172;SDS011;51758;52.218;5.172;2022-11-20T12:39:50;51.42;;;28.70;;
65172;SDS011;51758;52.218;5.172;2022-11-20T12:42:23;45.40;;;26.13;;
65172;SDS011;51758;52.218;5.172;2022-11-20T12:45:30;51.23;;;27.60;;
65172;SDS011;51758;52.218;5.172;2022-11-20T12:48:23;49.07;;;26.37;;
65172;SDS011;51758;52.218;5.172;2022-11-20T12:51:07;59.20;;;29.30;;
65172;SDS011;51758;52.218;5.172;2022-11-20T12:53:50;58.13;;;29.53;;
65172;SDS011;51758;52.218;5.172;2022-11-20T12:56:29;59.60;;;29.07;;
65172;SDS011;51758;52.218;5.172;2022-11-20T12:59:07;53.83;;;28.30;;
65172;SDS011;51758;52.218;5.172;2022-11-20T13:01:49;49.60;;;27.77;;
65172;SDS011;51758;52.218;5.172;2022-11-20T13:04:24;53.37;;;29.57;;
65172;SDS011;51758;52.218;5.172;2022-11-20T13:07:13;52.13;;;29.30;;
65172;SDS011;51758;52.218;5.172;2022-11-20T13:09:43;58.00;;;30.67;;
65172;SDS011;51758;52.218;5.172;2022-11-20T13:12:13;49.47;;;27.67;;
65172;SDS011;51758;52.218;5.172;2022-11-20T13:14:47;56.03;;;31.47;;
65172;SDS011;51758;52.218;5.172;2022-11-20T13:17:24;51.47;;;29.23;;
65172;SDS011;51758;52.218;5.172;2022-11-20T13:19:58;53.50;;;28.73;;
65172;SDS011;51758;52.218;5.172;2022-11-20T13:22:28;49.03;;;27.77;;
65172;SDS011;51758;52.218;5.172;2022-11-20T13:25:09;51.43;;;29.40;;
65172;SDS011;51758;52.218;5.172;2022-11-20T13:27:46;56.17;;;30.67;;
65172;SDS011;51758;52.218;5.172;2022-11-20T13:30:15;55.40;;;29.07;;
65172;SDS011;51758;52.218;5.172;2022-11-20T13:32:49;58.33;;;31.83;;
65172;SDS011;51758;52.218;5.172;2022-11-20T13:35:26;59.83;;;32.70;;
65172;SDS011;51758;52.218;5.172;2022-11-20T13:38:07;60.37;;;32.30;;
65172;SDS011;51758;52.218;5.172;2022-11-20T13:40:37;61.97;;;32.23;;
65172;SDS011;51758;52.218;5.172;2022-11-20T13:43:16;63.80;;;34.57;;
65172;SDS011;51758;52.218;5.172;2022-11-20T13:45:56;63.10;;;32.00;;
65172;SDS011;51758;52.218;5.172;2022-11-20T13:48:26;60.53;;;31.07;;
65172;SDS011;51758;52.218;5.172;2022-11-20T13:51:01;57.93;;;30.73;;
65172;SDS011;51758;52.218;5.172;2022-11-20T13:53:41;60.97;;;30.70;;
65172;SDS011;51758;52.218;5.172;2022-11-20T13:56:34;48.73;;;27.87;;
65172;SDS011;51758;52.218;5.172;2022-11-20T13:59:12;59.60;;;30.80;;
65172;SDS011;51758;52.218;5.172;2022-11-20T14:01:47;57.47;;;30.80;;
65172;SDS011;51758;52.218;5.172;2022-11-20T14:04:17;55.15;;;30.20;;
65172;SDS011;51758;52.218;5.172;2022-11-20T14:06:48;59.53;;;30.93;;
65172;SDS011;51758;52.218;5.172;2022-11-20T14:09:26;67.13;;;32.78;;
65172;SDS011;51758;52.218;5.172;2022-11-20T14:11:55;63.00;;;30.73;;
65172;SDS011;51758;52.218;5.172;2022-11-20T14:14:23;57.47;;;29.33;;
65172;SDS011;51758;52.218;5.172;2022-11-20T14:16:53;52.60;;;29.93;;
65172;SDS011;51758;52.218;5.172;2022-11-20T14:19:31;62.60;;;31.13;;
65172;SDS011;51758;52.218;5.172;2022-11-20T14:22:09;55.28;;;29.90;;
65172;SDS011;51758;52.218;5.172;2022-11-20T14:24:44;52.40;;;29.17;;
65172;SDS011;51758;52.218;5.172;2022-11-20T14:27:13;62.83;;;33.37;;
65172;SDS011;51758;52.218;5.172;2022-11-20T14:29:42;69.27;;;34.77;;
65172;SDS011;51758;52.218;5.172;2022-11-20T14:32:12;65.67;;;32.43;;
65172;SDS011;51758;52.218;5.172;2022-11-20T14:34:43;65.93;;;33.40;;
65172;SDS011;51758;52.218;5.172;2022-11-20T14:37:16;64.77;;;32.13;;
65172;SDS011;51758;52.218;5.172;2022-11-20T14:39:51;61.53;;;31.53;;
65172;SDS011;51758;52.218;5.172;2022-11-20T14:42:21;61.07;;;30.80;;
65172;SDS011;51758;52.218;5.172;2022-11-20T14:44:50;59.67;;;31.77;;
65172;SDS011;51758;52.218;5.172;2022-11-20T14:47:20;63.60;;;32.37;;
65172;SDS011;51758;52.218;5.172;2022-11-20T14:49:51;60.63;;;32.37;;
65172;SDS011;51758;52.218;5.172;2022-11-20T14:52:20;61.13;;;32.77;;
65172;SDS011;51758;52.218;5.172;2022-11-20T14:54:51;67.83;;;31.50;;
65172;SDS011;51758;52.218;5.172;2022-11-20T14:57:22;63.50;;;32.33;;
65172;SDS011;51758;52.218;5.172;2022-11-20T15:00:03;59.43;;;30.67;;
65172;SDS011;51758;52.218;5.172;2022-11-20T15:02:32;67.40;;;32.10;;
65172;SDS011;51758;52.218;5.172;2022-11-20T15:05:01;58.67;;;31.33;;
65172;SDS011;51758;52.218;5.172;2022-11-20T15:07:31;62.33;;;30.87;;